createdAt,value
2018-05-10T00:00:48.414Z,19.77
2018-05-10T00:03:16.549Z,19.00
2018-05-10T00:05:44.698Z,19.07
2018-05-10T00:08:12.824Z,20.17
2018-05-10T00:10:40.958Z,18.17
2018-05-10T00:13:09.095Z,20.30
2018-05-10T00:15:37.234Z,21.20
2018-05-10T00:18:05.362Z,20.03
2018-05-10T00:20:33.532Z,21.20
2018-05-10T00:23:01.671Z,20.20
2018-05-10T00:25:29.781Z,21.07
2018-05-10T00:27:58.078Z,21.57
2018-05-10T00:30:26.232Z,20.67
2018-05-10T00:32:55.143Z,21.20
2018-05-10T00:35:23.308Z,19.60
2018-05-10T00:37:51.433Z,21.30
2018-05-10T00:40:19.557Z,21.47
2018-05-10T00:42:47.694Z,20.13
2018-05-10T00:45:15.826Z,20.27
2018-05-10T00:47:43.958Z,20.60
2018-05-10T00:50:12.106Z,20.62
2018-05-10T00:52:40.234Z,19.43
2018-05-10T00:55:08.393Z,20.40
2018-05-10T00:57:36.543Z,19.30
2018-05-10T01:00:04.673Z,19.80
2018-05-10T01:02:32.797Z,18.33
2018-05-10T01:05:00.963Z,15.80
2018-05-10T01:07:29.096Z,16.57
2018-05-10T01:09:57.221Z,16.27
2018-05-10T01:12:25.371Z,16.97
2018-05-10T01:14:53.498Z,16.60
2018-05-10T01:17:21.627Z,15.30
2018-05-10T01:19:49.782Z,16.93
2018-05-10T01:22:17.901Z,16.17
2018-05-10T01:24:46.042Z,14.93
2018-05-10T01:27:14.190Z,16.07
2018-05-10T01:29:42.326Z,14.57
2018-05-10T01:32:10.454Z,15.10
2018-05-10T01:34:38.604Z,16.40
2018-05-10T01:37:06.787Z,16.13
2018-05-10T01:39:34.908Z,17.80
2018-05-10T01:42:03.042Z,15.70
2018-05-10T01:44:31.162Z,18.30
2018-05-10T01:46:59.294Z,22.70
2018-05-10T01:49:27.430Z,20.25
2018-05-10T01:51:55.563Z,19.70
2018-05-10T01:54:23.689Z,18.93
2018-05-10T01:56:52.388Z,19.53
2018-05-10T01:59:20.522Z,18.23
2018-05-10T02:01:48.645Z,19.23
2018-05-10T02:04:16.771Z,18.40
2018-05-10T02:06:44.890Z,17.10
2018-05-10T02:09:13.018Z,19.80
2018-05-10T02:11:41.145Z,21.37
2018-05-10T02:14:09.255Z,19.17
2018-05-10T02:16:37.382Z,20.30
2018-05-10T02:19:05.615Z,18.37
2018-05-10T02:21:33.743Z,18.40
2018-05-10T02:24:01.859Z,19.00
2018-05-10T02:26:30.005Z,16.90
2018-05-10T02:28:58.136Z,16.87
2018-05-10T02:31:26.287Z,17.40
2018-05-10T02:33:54.458Z,16.90
2018-05-10T02:36:22.642Z,18.80
2018-05-10T02:38:50.711Z,17.10
2018-05-10T02:41:18.850Z,17.00
2018-05-10T02:43:46.989Z,16.10
2018-05-10T02:46:15.113Z,18.47
2018-05-10T02:48:43.267Z,16.70
2018-05-10T02:51:11.409Z,17.90
2018-05-10T02:53:39.556Z,16.40
2018-05-10T02:56:07.696Z,18.43
2018-05-10T02:58:35.819Z,18.55
2018-05-10T03:01:03.956Z,19.40
2018-05-10T03:03:32.158Z,19.60
2018-05-10T03:06:00.284Z,19.13
2018-05-10T03:08:28.422Z,18.87
2018-05-10T03:10:56.555Z,17.50
2018-05-10T03:13:24.764Z,18.02
2018-05-10T03:15:52.889Z,16.10
2018-05-10T03:18:21.031Z,18.13
2018-05-10T03:20:49.161Z,18.20
2018-05-10T03:23:17.294Z,16.30
2018-05-10T03:25:45.448Z,15.97
2018-05-10T03:28:13.580Z,18.00
2018-05-10T03:30:41.711Z,17.33
2018-05-10T03:33:10.316Z,17.30
2018-05-10T03:35:38.423Z,14.93
2018-05-10T03:38:06.567Z,13.80
2018-05-10T03:40:34.724Z,13.67
2018-05-10T03:43:02.834Z,14.00
2018-05-10T03:45:30.970Z,14.20
2018-05-10T03:47:59.144Z,16.93
2018-05-10T03:50:27.290Z,14.80
2018-05-10T03:52:55.895Z,17.97
2018-05-10T03:55:24.031Z,20.62
2018-05-10T03:57:52.147Z,20.03
2018-05-10T04:00:20.275Z,20.10
2018-05-10T04:06:15.780Z,20.43
2018-05-10T04:08:55.620Z,22.20
2018-05-10T04:11:26.555Z,21.23
2018-05-10T04:13:54.698Z,20.60
2018-05-10T04:16:22.832Z,20.40
2018-05-10T04:18:51.980Z,20.37
2018-05-10T04:21:20.135Z,22.10
2018-05-10T04:23:48.354Z,20.70
2018-05-10T04:26:16.483Z,22.20
2018-05-10T04:28:44.613Z,23.00
2018-05-10T04:31:12.749Z,21.50
2018-05-10T04:33:40.892Z,22.90
2018-05-10T04:36:09.014Z,24.03
2018-05-10T04:38:37.138Z,24.27
2018-05-10T04:41:05.282Z,25.30
2018-05-10T04:43:33.428Z,26.60
2018-05-10T04:46:01.562Z,25.40
2018-05-10T04:48:29.695Z,28.55
2018-05-10T04:50:57.846Z,29.60
2018-05-10T04:53:25.979Z,28.43
2018-05-10T04:55:54.108Z,36.80
2018-05-10T04:58:22.245Z,32.87
2018-05-10T05:00:50.389Z,38.87
2018-05-10T05:03:18.533Z,41.63
2018-05-10T05:05:46.794Z,46.27
2018-05-10T05:08:14.945Z,43.20
2018-05-10T05:10:43.067Z,45.90
2018-05-10T05:13:11.185Z,45.33
2018-05-10T05:15:39.320Z,42.87
2018-05-10T05:18:07.465Z,47.17
2018-05-10T05:20:35.589Z,53.10
2018-05-10T05:23:03.729Z,55.20
2018-05-10T05:25:31.864Z,52.97
2018-05-10T05:28:00.017Z,55.27
2018-05-10T05:30:28.174Z,57.60
2018-05-10T05:32:56.313Z,55.70
2018-05-10T05:35:24.445Z,57.55
2018-05-10T05:37:52.578Z,55.30
2018-05-10T05:40:20.729Z,55.03
2018-05-10T05:42:48.870Z,55.60
2018-05-10T05:45:17.007Z,56.72
2018-05-10T05:47:45.137Z,58.92
2018-05-10T05:50:13.289Z,53.00
2018-05-10T05:52:41.490Z,55.00
2018-05-10T05:55:11.073Z,54.43
2018-05-10T05:57:39.226Z,51.93
2018-05-10T06:00:07.642Z,53.33
2018-05-10T06:02:35.805Z,52.27
2018-05-10T06:05:04.053Z,50.20
2018-05-10T06:07:32.207Z,50.33
2018-05-10T06:10:00.340Z,50.00
2018-05-10T06:12:28.463Z,47.40
2018-05-10T06:14:56.638Z,43.33
2018-05-10T06:17:24.774Z,44.63
2018-05-10T06:19:52.965Z,44.93
2018-05-10T06:22:21.093Z,42.70
2018-05-10T06:24:49.274Z,47.10
2018-05-10T06:27:17.401Z,47.67
2018-05-10T06:29:45.560Z,48.67
2018-05-10T06:32:13.726Z,48.67
2018-05-10T06:34:41.858Z,47.90
2018-05-10T06:37:10.582Z,48.50
2018-05-10T06:39:38.705Z,51.63
2018-05-10T06:42:06.889Z,51.60
2018-05-10T06:44:35.055Z,49.37
2018-05-10T06:47:03.184Z,46.57
2018-05-10T06:49:31.324Z,45.43
2018-05-10T06:51:59.504Z,44.10
2018-05-10T06:54:27.650Z,41.53
2018-05-10T06:56:55.857Z,42.00
2018-05-10T06:59:24.147Z,43.60
2018-05-10T07:01:52.260Z,44.60
2018-05-10T07:04:20.415Z,43.47
2018-05-10T07:06:48.577Z,40.97
2018-05-10T07:11:51.051Z,34.93
2018-05-10T07:14:19.197Z,35.00
2018-05-10T07:16:47.352Z,36.90
2018-05-10T07:19:15.617Z,36.25
2018-05-10T07:21:43.766Z,33.83
2018-05-10T07:24:11.919Z,31.80
2018-05-10T07:26:40.086Z,33.07
2018-05-10T07:29:08.267Z,32.50
2018-05-10T07:31:36.415Z,33.77
2018-05-10T07:34:04.548Z,33.77
2018-05-10T07:36:32.675Z,34.00
2018-05-10T07:39:00.836Z,32.10
2018-05-10T07:41:28.964Z,34.80
2018-05-10T07:43:57.094Z,33.60
2018-05-10T07:46:25.238Z,35.67
2018-05-10T07:48:53.376Z,35.00
2018-05-10T07:51:21.496Z,32.95
2018-05-10T07:53:49.649Z,29.60
2018-05-10T07:56:17.799Z,31.43
2018-05-10T07:58:45.929Z,31.52
2018-05-10T08:01:14.070Z,33.40
2018-05-10T08:03:42.217Z,34.10
2018-05-10T08:06:10.358Z,34.50
2018-05-10T08:08:38.485Z,27.70
2018-05-10T08:11:07.348Z,25.80
2018-05-10T08:13:35.498Z,24.80
2018-05-10T08:16:03.619Z,23.27
2018-05-10T08:18:32.501Z,22.50
2018-05-10T08:21:00.673Z,21.90
2018-05-10T08:26:26.320Z,26.50
2018-05-10T08:28:54.470Z,28.70
2018-05-10T08:31:22.635Z,26.98
2018-05-10T08:33:50.757Z,28.20
2018-05-10T08:36:18.892Z,27.33
2018-05-10T08:38:47.031Z,32.03
2018-05-10T08:41:15.381Z,32.20
2018-05-10T08:43:43.508Z,30.33
2018-05-10T08:46:11.671Z,22.53
2018-05-10T08:48:39.808Z,21.87
2018-05-10T08:51:07.987Z,19.87
2018-05-10T08:53:37.130Z,22.47
2018-05-10T08:56:05.263Z,24.20
2018-05-10T08:58:33.404Z,21.17
2018-05-10T09:01:01.563Z,22.17
2018-05-10T09:03:29.693Z,20.57
2018-05-10T09:05:57.852Z,20.10
2018-05-10T09:08:25.976Z,25.80
2018-05-10T09:10:54.124Z,23.37
2018-05-10T09:13:22.265Z,22.55
2018-05-10T09:15:50.466Z,22.70
2018-05-10T09:18:18.577Z,23.23
2018-05-10T09:20:47.851Z,20.17
2018-05-10T09:23:16.026Z,18.70
2018-05-10T09:25:44.253Z,21.20
2018-05-10T09:28:13.253Z,20.90
2018-05-10T09:30:41.385Z,20.27
2018-05-10T09:33:10.333Z,21.12
2018-05-10T09:35:38.498Z,20.40
2018-05-10T09:38:06.635Z,19.67
2018-05-10T09:40:34.766Z,17.27
2018-05-10T09:43:02.900Z,20.93
2018-05-10T09:45:31.035Z,19.70
2018-05-10T09:47:59.171Z,19.50
2018-05-10T09:50:27.315Z,17.50
2018-05-10T09:52:55.464Z,15.50
2018-05-10T09:55:23.594Z,13.40
2018-05-10T09:57:51.734Z,16.50
2018-05-10T10:00:25.412Z,16.10
2018-05-10T10:02:53.561Z,17.93
2018-05-10T10:05:21.703Z,16.52
2018-05-10T10:07:49.845Z,16.87
2018-05-10T10:10:18.189Z,15.47
2018-05-10T10:12:46.319Z,17.08
2018-05-10T10:15:14.859Z,15.90
2018-05-10T10:17:43.281Z,14.40
2018-05-10T10:20:11.355Z,18.60
2018-05-10T10:22:39.473Z,14.60
2018-05-10T10:25:07.740Z,11.23
2018-05-10T10:27:35.797Z,13.10
2018-05-10T10:30:03.932Z,13.43
2018-05-10T10:32:32.455Z,12.90
2018-05-10T10:35:00.594Z,12.40
2018-05-10T10:37:28.722Z,12.57
2018-05-10T10:39:57.018Z,13.20
2018-05-10T10:42:25.148Z,13.70
2018-05-10T10:44:53.279Z,13.40
2018-05-10T10:47:21.475Z,15.03
2018-05-10T10:49:49.590Z,14.20
2018-05-10T10:52:17.723Z,12.53
2018-05-10T10:54:45.857Z,13.60
2018-05-10T10:57:13.991Z,13.67
2018-05-10T10:59:42.122Z,13.10
2018-05-10T11:02:10.327Z,13.87
2018-05-10T11:04:38.450Z,13.60
2018-05-10T11:07:06.661Z,13.20
2018-05-10T11:09:34.814Z,13.33
2018-05-10T11:12:02.937Z,12.60
2018-05-10T11:14:31.077Z,13.60
2018-05-10T11:16:59.194Z,15.13
2018-05-10T11:19:27.358Z,13.23
2018-05-10T11:21:55.476Z,15.70
2018-05-10T11:24:23.599Z,14.53
2018-05-10T11:26:51.763Z,13.50
2018-05-10T11:29:19.954Z,16.13
2018-05-10T11:31:48.069Z,12.97
2018-05-10T11:34:16.221Z,14.90
2018-05-10T11:36:44.369Z,15.40
2018-05-10T11:39:12.585Z,14.80
2018-05-10T11:41:40.798Z,15.27
2018-05-10T11:44:08.949Z,14.00
2018-05-10T11:46:37.110Z,13.57
2018-05-10T11:49:05.267Z,13.47
2018-05-10T11:51:33.391Z,13.87
2018-05-10T11:54:01.593Z,13.93
2018-05-10T11:56:29.833Z,12.50
2018-05-10T11:58:57.995Z,11.77
2018-05-10T12:01:26.153Z,11.57
2018-05-10T12:03:54.297Z,11.47
2018-05-10T12:06:22.482Z,11.03
2018-05-10T12:08:50.619Z,12.50
2018-05-10T12:11:18.755Z,12.77
2018-05-10T12:13:46.881Z,12.17
2018-05-10T12:16:15.035Z,12.10
2018-05-10T12:18:43.181Z,12.30
2018-05-10T12:21:11.294Z,11.20
2018-05-10T12:23:39.462Z,11.80
2018-05-10T12:26:07.646Z,11.43
2018-05-10T12:28:35.774Z,11.50
2018-05-10T12:31:03.953Z,9.80
2018-05-10T12:33:32.027Z,10.00
2018-05-10T12:36:00.151Z,9.57
2018-05-10T12:38:28.284Z,9.30
2018-05-10T12:40:56.405Z,9.57
2018-05-10T12:43:24.533Z,10.30
2018-05-10T12:45:52.680Z,9.67
2018-05-10T12:48:20.811Z,8.33
2018-05-10T12:50:48.923Z,8.50
2018-05-10T12:53:17.067Z,8.40
2018-05-10T12:55:45.184Z,7.90
2018-05-10T12:58:13.302Z,7.80
2018-05-10T13:00:41.518Z,8.10
2018-05-10T13:03:10.231Z,7.35
2018-05-10T13:05:38.360Z,6.67
2018-05-10T13:08:06.496Z,6.43
2018-05-10T13:10:34.626Z,7.00
2018-05-10T13:13:02.746Z,6.30
2018-05-10T13:15:30.868Z,6.40
2018-05-10T13:17:58.987Z,6.20
2018-05-10T13:20:27.101Z,7.30
2018-05-10T13:22:55.225Z,7.30
2018-05-10T13:25:23.363Z,8.43
2018-05-10T13:27:51.477Z,8.60
2018-05-10T13:30:19.597Z,8.30
2018-05-10T13:32:47.734Z,8.27
2018-05-10T13:35:15.870Z,8.80
2018-05-10T13:37:43.998Z,8.60
2018-05-10T13:40:12.129Z,8.07
2018-05-10T13:42:40.263Z,7.23
2018-05-10T13:45:08.392Z,6.60
2018-05-10T13:47:36.576Z,6.97
2018-05-10T13:50:04.645Z,8.10
2018-05-10T13:52:32.811Z,12.50
2018-05-10T13:55:00.953Z,8.63
2018-05-10T13:57:29.078Z,5.70
2018-05-10T13:59:57.229Z,4.90
2018-05-10T14:02:25.346Z,6.30
2018-05-10T14:04:53.463Z,4.60
2018-05-10T14:07:21.597Z,5.18
2018-05-10T14:09:49.728Z,5.80
2018-05-10T14:12:17.866Z,5.20
2018-05-10T14:14:45.990Z,7.00
2018-05-10T14:17:14.126Z,6.60
2018-05-10T14:19:48.707Z,6.80
2018-05-10T14:22:23.042Z,7.43
2018-05-10T14:24:52.310Z,7.97
2018-05-10T14:27:20.494Z,8.00
2018-05-10T14:29:48.889Z,7.77
2018-05-10T14:32:30.455Z,7.05
2018-05-10T14:35:01.420Z,7.17
2018-05-10T14:37:29.597Z,7.20
2018-05-10T14:39:57.755Z,7.83
2018-05-10T14:42:25.913Z,7.67
2018-05-10T14:44:54.054Z,6.73
2018-05-10T14:47:22.199Z,7.70
2018-05-10T14:49:50.355Z,8.10
2018-05-10T14:52:18.475Z,7.57
2018-05-10T14:54:46.647Z,6.10
2018-05-10T14:57:14.821Z,6.43
2018-05-10T14:59:42.987Z,6.50
2018-05-10T15:02:11.113Z,6.20
2018-05-10T15:04:39.224Z,6.00
2018-05-10T15:07:07.380Z,6.10
2018-05-10T15:09:35.510Z,6.90
2018-05-10T15:12:03.675Z,6.20
2018-05-10T15:14:31.794Z,6.70
2018-05-10T15:16:59.938Z,6.70
2018-05-10T15:19:28.107Z,7.53
2018-05-10T15:21:56.243Z,7.10
2018-05-10T15:24:24.385Z,6.93
2018-05-10T15:26:52.514Z,6.50
2018-05-10T15:29:20.646Z,6.62
2018-05-10T15:31:48.800Z,6.50
2018-05-10T15:34:16.940Z,6.43
2018-05-10T15:36:45.086Z,6.18
2018-05-10T15:39:13.282Z,6.20
2018-05-10T15:41:41.365Z,6.17
2018-05-10T15:44:09.508Z,6.43
2018-05-10T15:46:37.630Z,7.50
2018-05-10T15:49:05.778Z,7.20
2018-05-10T15:51:33.932Z,7.17
2018-05-10T15:54:02.079Z,6.40
2018-05-10T15:56:30.189Z,5.47
2018-05-10T15:58:58.343Z,6.43
2018-05-10T16:01:26.467Z,6.63
2018-05-10T16:03:54.611Z,6.87
2018-05-10T16:06:22.739Z,8.10
2018-05-10T16:08:50.887Z,7.10
2018-05-10T16:11:19.002Z,6.93
2018-05-10T16:13:47.203Z,7.23
2018-05-10T16:16:15.286Z,6.33
2018-05-10T16:18:43.422Z,7.10
2018-05-10T16:21:11.559Z,7.70
2018-05-10T16:23:39.735Z,8.00
2018-05-10T16:26:07.868Z,7.20
2018-05-10T16:28:36.000Z,7.07
2018-05-10T16:31:04.143Z,8.23
2018-05-10T16:33:32.348Z,7.73
2018-05-10T16:36:00.415Z,7.13
2018-05-10T16:38:28.546Z,6.55
2018-05-10T16:40:57.689Z,6.37
2018-05-10T16:43:26.461Z,6.22
2018-05-10T16:45:54.599Z,7.90
2018-05-10T16:48:22.733Z,6.73
2018-05-10T16:50:50.891Z,7.47
2018-05-10T16:53:19.129Z,6.47
2018-05-10T16:55:47.206Z,6.90
2018-05-10T16:58:15.372Z,7.27
2018-05-10T17:00:43.506Z,6.97
2018-05-10T17:03:11.852Z,6.90
2018-05-10T17:05:40.011Z,4.30
2018-05-10T17:08:08.157Z,5.80
2018-05-10T17:10:36.305Z,3.77
2018-05-10T17:13:04.455Z,3.70
2018-05-10T17:15:32.575Z,3.97
2018-05-10T17:18:00.718Z,4.57
2018-05-10T17:20:28.902Z,3.72
2018-05-10T17:22:57.068Z,4.60
2018-05-10T17:25:25.234Z,4.12
2018-05-10T17:27:53.354Z,3.77
2018-05-10T17:30:22.427Z,4.60
2018-05-10T17:32:50.605Z,4.13
2018-05-10T17:35:18.755Z,4.40
2018-05-10T17:37:46.889Z,4.60
2018-05-10T17:40:15.045Z,5.30
2018-05-10T17:42:43.218Z,5.60
2018-05-10T17:45:11.347Z,5.30
2018-05-10T17:47:39.470Z,4.77
2018-05-10T17:50:07.604Z,4.63
2018-05-10T17:52:35.749Z,4.67
2018-05-10T17:55:03.899Z,4.40
2018-05-10T17:57:32.351Z,4.57
2018-05-10T18:00:01.803Z,5.83
2018-05-10T18:02:29.930Z,4.33
2018-05-10T18:04:58.094Z,4.40
2018-05-10T18:07:26.235Z,3.75
2018-05-10T18:09:54.404Z,4.23
2018-05-10T18:12:22.568Z,4.70
2018-05-10T18:14:50.711Z,4.60
2018-05-10T18:17:18.866Z,4.07
2018-05-10T18:19:47.078Z,4.63
2018-05-10T18:22:15.211Z,3.97
2018-05-10T18:24:44.362Z,4.00
2018-05-10T18:27:12.552Z,4.37
2018-05-10T18:29:40.715Z,4.17
2018-05-10T18:32:08.836Z,4.23
2018-05-10T18:34:37.091Z,5.03
2018-05-10T18:37:05.247Z,6.00
2018-05-10T18:39:34.554Z,10.50
2018-05-10T18:42:03.199Z,21.77
2018-05-10T18:44:31.362Z,15.40
2018-05-10T18:46:59.475Z,13.30
2018-05-10T18:49:27.647Z,10.55
2018-05-10T18:51:55.817Z,9.23
2018-05-10T18:54:23.976Z,7.60
2018-05-10T18:56:52.133Z,8.30
2018-05-10T18:59:20.263Z,7.20
2018-05-10T19:01:48.395Z,7.80
2018-05-10T19:04:16.598Z,8.07
2018-05-10T19:06:44.718Z,7.07
2018-05-10T19:09:12.899Z,7.75
2018-05-10T19:11:41.086Z,7.40
2018-05-10T19:14:09.242Z,7.80
2018-05-10T19:16:37.394Z,8.38
2018-05-10T19:19:05.593Z,7.60
2018-05-10T19:21:33.715Z,7.60
2018-05-10T19:24:01.842Z,7.70
2018-05-10T19:26:29.983Z,7.97
2018-05-10T19:28:58.108Z,7.50
2018-05-10T19:31:26.242Z,6.15
2018-05-10T19:33:54.373Z,7.40
2018-05-10T19:36:22.493Z,7.40
2018-05-10T19:38:50.659Z,10.07
2018-05-10T19:41:18.805Z,9.80
2018-05-10T19:43:46.937Z,9.43
2018-05-10T19:46:15.114Z,8.93
2018-05-10T19:48:43.254Z,9.77
2018-05-10T19:51:11.461Z,9.20
2018-05-10T19:53:39.542Z,8.83
2018-05-10T19:56:09.253Z,8.30
2018-05-10T19:58:37.413Z,7.00
2018-05-10T20:01:05.549Z,7.63
2018-05-10T20:03:33.676Z,7.17
2018-05-10T20:06:01.831Z,6.17
2018-05-10T20:08:30.198Z,6.80
2018-05-10T20:10:58.334Z,7.73
2018-05-10T20:13:26.510Z,6.53
2018-05-10T20:15:54.630Z,6.73
2018-05-10T20:18:22.837Z,6.97
2018-05-10T20:20:50.973Z,6.60
2018-05-10T20:23:19.099Z,6.37
2018-05-10T20:25:47.247Z,6.30
2018-05-10T20:28:15.515Z,6.43
2018-05-10T20:30:43.526Z,6.00
2018-05-10T20:33:11.647Z,6.50
2018-05-10T20:35:39.778Z,6.83
2018-05-10T20:38:07.915Z,6.93
2018-05-10T20:40:36.090Z,7.40
2018-05-10T20:43:04.248Z,6.97
2018-05-10T20:45:32.361Z,6.20
2018-05-10T20:48:00.493Z,6.60
2018-05-10T20:50:28.691Z,6.00
2018-05-10T20:52:56.810Z,6.20
2018-05-10T20:55:24.929Z,7.33
2018-05-10T20:57:53.078Z,6.60
2018-05-10T21:00:21.212Z,6.40
2018-05-10T21:02:49.352Z,6.77
2018-05-10T21:05:17.484Z,6.60
2018-05-10T21:07:45.623Z,6.67
2018-05-10T21:10:13.761Z,6.10
2018-05-10T21:12:42.811Z,6.13
2018-05-10T21:15:10.945Z,5.37
2018-05-10T21:17:39.106Z,5.90
2018-05-10T21:20:07.237Z,6.47
2018-05-10T21:22:35.358Z,6.30
2018-05-10T21:25:03.502Z,6.00
2018-05-10T21:27:45.296Z,6.35
2018-05-10T21:30:15.140Z,5.60
2018-05-10T21:32:48.546Z,5.30
2018-05-10T21:35:17.989Z,6.20
2018-05-10T21:37:46.381Z,6.23
2018-05-10T21:40:14.501Z,6.30
2018-05-10T21:42:42.639Z,5.30
2018-05-10T21:45:10.762Z,5.60
2018-05-10T21:47:38.923Z,5.80
2018-05-10T21:50:07.098Z,6.03
2018-05-10T21:52:35.218Z,5.77
2018-05-10T21:55:03.396Z,6.53
2018-05-10T21:57:31.524Z,6.50
2018-05-10T21:59:59.661Z,5.60
2018-05-10T22:02:27.812Z,7.20
2018-05-10T22:04:55.972Z,5.90
2018-05-10T22:07:24.092Z,6.70
2018-05-10T22:09:52.243Z,6.70
2018-05-10T22:12:20.375Z,8.00
2018-05-10T22:14:49.202Z,7.07
2018-05-10T22:17:17.333Z,7.07
2018-05-10T22:19:45.482Z,8.23
2018-05-10T22:22:13.619Z,7.97
2018-05-10T22:24:41.747Z,8.13
2018-05-10T22:27:10.141Z,8.20
2018-05-10T22:29:38.295Z,8.40
2018-05-10T22:32:06.426Z,8.15
2018-05-10T22:34:34.588Z,7.77
2018-05-10T22:37:02.698Z,8.27
2018-05-10T22:39:30.854Z,7.93
2018-05-10T22:41:58.994Z,8.90
2018-05-10T22:44:30.306Z,7.43
2018-05-10T22:46:58.355Z,7.40
2018-05-10T22:49:26.486Z,7.30
2018-05-10T22:51:54.633Z,7.10
2018-05-10T22:54:22.768Z,6.37
2018-05-10T22:56:50.909Z,6.40
2018-05-10T22:59:19.030Z,6.37
2018-05-10T23:01:47.154Z,7.23
2018-05-10T23:04:15.301Z,6.60
2018-05-10T23:06:43.425Z,6.40
2018-05-10T23:09:11.547Z,6.87
2018-05-10T23:11:39.688Z,5.80
2018-05-10T23:14:07.819Z,4.93
2018-05-10T23:16:35.948Z,5.80
2018-05-10T23:19:04.068Z,5.57
2018-05-10T23:21:32.188Z,5.73
2018-05-10T23:24:00.315Z,5.27
2018-05-10T23:26:28.433Z,5.20
2018-05-10T23:28:56.562Z,4.93
2018-05-10T23:31:24.679Z,5.18
2018-05-10T23:33:56.083Z,5.20
2018-05-10T23:36:24.218Z,4.60
2018-05-10T23:38:52.338Z,4.27
2018-05-10T23:41:20.456Z,4.57
2018-05-10T23:43:48.591Z,4.45
2018-05-10T23:46:16.739Z,4.00
2018-05-10T23:48:45.016Z,4.10
2018-05-10T23:51:13.147Z,4.20
2018-05-10T23:53:41.269Z,4.35
2018-05-10T23:56:09.385Z,4.47
2018-05-10T23:58:37.523Z,4.23
